createdAt,value
2018-01-23T00:01:50.118Z,71.87
2018-01-23T00:04:19.877Z,71.94
2018-01-23T00:06:52.517Z,72.08
2018-01-23T00:09:21.794Z,72.10
2018-01-23T00:11:51.166Z,72.61
2018-01-23T00:14:20.406Z,72.35
2018-01-23T00:16:50.035Z,72.60
2018-01-23T00:19:19.234Z,72.53
2018-01-23T00:21:48.517Z,72.75
2018-01-23T00:24:17.835Z,72.86
2018-01-23T00:26:47.967Z,72.91
2018-01-23T00:29:17.533Z,73.19
2018-01-23T00:31:48.469Z,73.21
2018-01-23T00:34:18.600Z,73.20
2018-01-23T00:36:49.407Z,73.57
2018-01-23T00:39:18.943Z,73.32
2018-01-23T00:41:49.162Z,73.63
2018-01-23T00:44:18.734Z,73.42
2018-01-23T00:46:48.094Z,73.26
2018-01-23T00:49:17.745Z,72.92
2018-01-23T00:51:49.096Z,73.05
2018-01-23T00:54:18.807Z,73.24
2018-01-23T00:56:48.839Z,73.56
2018-01-23T00:59:18.246Z,73.45
2018-01-23T01:01:47.959Z,73.48
2018-01-23T01:04:17.971Z,73.32
2018-01-23T01:06:47.579Z,73.12
2018-01-23T01:09:16.930Z,72.82
2018-01-23T01:11:46.647Z,72.70
2018-01-23T01:14:15.922Z,73.09
2018-01-23T01:16:45.358Z,73.19
2018-01-23T01:19:15.136Z,73.02
2018-01-23T01:21:44.416Z,72.88
2018-01-23T01:24:13.839Z,72.99
2018-01-23T01:26:43.630Z,73.05
2018-01-23T01:29:12.872Z,73.29
2018-01-23T01:31:42.226Z,73.45
2018-01-23T01:34:11.894Z,73.39
2018-01-23T01:36:43.061Z,73.55
2018-01-23T01:39:13.681Z,73.46
2018-01-23T01:41:44.911Z,73.39
2018-01-23T01:44:15.257Z,73.39
2018-01-23T01:46:45.323Z,73.65
2018-01-23T01:49:15.855Z,73.58
2018-01-23T01:51:46.424Z,73.37
2018-01-23T01:54:17.714Z,73.29
2018-01-23T01:56:48.402Z,73.42
2018-01-23T01:59:18.789Z,73.23
2018-01-23T02:01:49.511Z,73.02
2018-01-23T02:04:18.722Z,73.12
2018-01-23T02:06:47.847Z,73.16
2018-01-23T02:09:17.318Z,73.05
2018-01-23T02:11:46.493Z,73.04
2018-01-23T02:14:15.656Z,73.01
2018-01-23T02:16:45.238Z,72.88
2018-01-23T02:19:14.386Z,73.07
2018-01-23T02:21:43.529Z,73.20
2018-01-23T02:24:13.109Z,73.43
2018-01-23T02:26:42.224Z,73.50
2018-01-23T02:29:11.393Z,73.64
2018-01-23T02:31:40.912Z,73.47
2018-01-23T02:34:10.956Z,73.48
2018-01-23T02:41:16.113Z,73.12
2018-01-23T02:43:45.262Z,73.19
2018-01-23T02:46:14.742Z,73.31
2018-01-23T02:48:43.897Z,73.15
2018-01-23T02:51:12.995Z,72.84
2018-01-23T02:53:42.423Z,72.91
2018-01-23T02:56:11.581Z,73.04
2018-01-23T02:58:40.754Z,72.80
2018-01-23T03:01:09.865Z,72.92
2018-01-23T03:03:38.958Z,72.92
2018-01-23T03:06:08.410Z,72.85
2018-01-23T03:08:37.887Z,72.86
2018-01-23T03:11:07.048Z,72.96
2018-01-23T03:13:36.191Z,73.09
2018-01-23T03:16:06.226Z,72.83
2018-01-23T03:18:35.800Z,72.68
2018-01-23T03:21:04.963Z,72.59
2018-01-23T03:23:34.124Z,72.63
2018-01-23T03:26:04.202Z,72.38
2018-01-23T03:28:33.695Z,72.12
2018-01-23T03:31:03.146Z,72.21
2018-01-23T03:33:32.724Z,72.26
2018-01-23T03:36:02.791Z,72.09
2018-01-23T03:38:32.056Z,72.11
2018-01-23T03:41:02.918Z,71.99
2018-01-23T03:43:32.033Z,71.76
2018-01-23T03:46:01.442Z,71.70
2018-01-23T03:48:31.827Z,72.19
2018-01-23T03:51:01.274Z,72.11
2018-01-23T03:53:30.459Z,72.04
2018-01-23T03:56:01.180Z,71.83
2018-01-23T03:58:30.378Z,71.96
2018-01-23T04:00:59.504Z,72.21
2018-01-23T04:03:29.428Z,72.07
2018-01-23T04:05:58.559Z,72.05
2018-01-23T04:08:27.754Z,72.05
2018-01-23T04:10:57.408Z,72.12
2018-01-23T04:13:26.890Z,72.31
2018-01-23T04:15:57.060Z,72.06
2018-01-23T04:18:26.789Z,72.09
2018-01-23T04:20:55.887Z,72.17
2018-01-23T04:23:25.082Z,72.26
2018-01-23T04:25:54.174Z,72.40
2018-01-23T04:28:23.302Z,72.13
2018-01-23T04:30:52.986Z,71.87
2018-01-23T04:33:22.087Z,71.50
2018-01-23T04:35:51.194Z,71.51
2018-01-23T04:38:20.317Z,71.13
2018-01-23T04:40:49.519Z,71.60
2018-01-23T04:43:18.922Z,71.96
2018-01-23T04:45:48.047Z,72.02
2018-01-23T04:48:17.209Z,72.09
2018-01-23T04:50:47.075Z,71.91
2018-01-23T04:53:16.216Z,71.76
2018-01-23T04:55:45.870Z,71.69
2018-01-23T04:58:15.441Z,71.65
2018-01-23T05:00:45.197Z,71.71
2018-01-23T05:03:14.309Z,71.69
2018-01-23T05:05:43.887Z,71.99
2018-01-23T05:08:13.000Z,71.89
2018-01-23T05:10:42.438Z,72.34
2018-01-23T05:13:11.609Z,72.10
2018-01-23T05:15:40.742Z,72.12
2018-01-23T05:18:09.862Z,72.00
2018-01-23T05:20:39.404Z,71.94
2018-01-23T05:23:08.576Z,72.24
2018-01-23T05:25:38.283Z,72.33
2018-01-23T05:28:07.844Z,72.22
2018-01-23T05:30:37.451Z,72.21
2018-01-23T05:33:06.626Z,72.40
2018-01-23T05:35:36.281Z,72.34
2018-01-23T05:38:06.091Z,72.29
2018-01-23T05:40:35.266Z,72.01
2018-01-23T05:43:05.105Z,72.09
2018-01-23T05:45:34.257Z,72.15
2018-01-23T05:48:05.491Z,72.12
2018-01-23T05:50:34.669Z,72.32
2018-01-23T05:53:04.223Z,72.47
2018-01-23T05:55:34.330Z,72.31
2018-01-23T05:58:05.321Z,72.37
2018-01-23T06:00:34.581Z,72.52
2018-01-23T06:03:04.306Z,72.76
2018-01-23T06:05:33.655Z,73.24
2018-01-23T06:08:04.143Z,73.64
2018-01-23T06:10:33.599Z,73.98
2018-01-23T06:13:03.761Z,74.15
2018-01-23T06:15:32.921Z,74.31
2018-01-23T06:18:03.236Z,74.36
2018-01-23T06:20:33.764Z,74.53
2018-01-23T06:23:03.232Z,74.72
2018-01-23T06:25:32.383Z,74.86
2018-01-23T06:28:01.703Z,74.81
2018-01-23T06:30:30.854Z,74.71
2018-01-23T06:33:00.088Z,75.06
2018-01-23T06:35:29.568Z,75.18
2018-01-23T06:37:58.680Z,74.99
2018-01-23T06:40:28.284Z,75.25
2018-01-23T06:42:57.788Z,75.30
2018-01-23T06:45:27.062Z,75.72
2018-01-23T06:47:56.504Z,75.69
2018-01-23T06:50:25.841Z,75.69
2018-01-23T06:52:55.013Z,75.88
2018-01-23T06:55:24.462Z,75.70
2018-01-23T06:57:53.602Z,76.06
2018-01-23T07:00:22.773Z,76.23
2018-01-23T07:02:51.891Z,75.98
2018-01-23T07:05:21.031Z,75.74
2018-01-23T07:07:50.972Z,75.39
2018-01-23T07:10:20.380Z,75.45
2018-01-23T07:12:49.687Z,75.45
2018-01-23T07:15:19.137Z,75.38
2018-01-23T07:17:48.324Z,75.29
2018-01-23T07:20:18.681Z,75.41
2018-01-23T07:22:48.140Z,75.04
2018-01-23T07:25:17.263Z,75.26
2018-01-23T07:27:48.116Z,75.51
2018-01-23T07:30:17.618Z,75.42
2018-01-23T07:32:46.773Z,75.39
2018-01-23T07:35:15.929Z,75.31
2018-01-23T07:37:45.401Z,75.43
2018-01-23T07:40:14.528Z,75.38
2018-01-23T07:42:43.691Z,75.35
2018-01-23T07:45:13.111Z,75.32
2018-01-23T07:47:42.224Z,75.24
2018-01-23T07:50:11.400Z,75.16
2018-01-23T07:52:40.840Z,75.06
2018-01-23T07:55:09.987Z,74.99
2018-01-23T07:57:39.237Z,75.01
2018-01-23T08:00:08.745Z,75.01
2018-01-23T08:02:39.562Z,75.16
2018-01-23T08:05:09.714Z,75.20
2018-01-23T08:07:39.278Z,74.90
2018-01-23T08:10:08.429Z,74.81
2018-01-23T08:12:37.585Z,74.77
2018-01-23T08:15:06.718Z,74.56
2018-01-23T08:17:36.148Z,74.43
2018-01-23T08:20:06.471Z,74.52
2018-01-23T08:22:35.603Z,74.39
2018-01-23T08:25:05.246Z,74.37
2018-01-23T08:27:35.057Z,74.31
2018-01-23T08:30:05.345Z,74.09
2018-01-23T08:32:34.844Z,73.98
2018-01-23T08:35:04.393Z,74.01
2018-01-23T08:37:34.760Z,73.96
2018-01-23T08:40:04.817Z,74.32
2018-01-23T08:42:35.028Z,74.27
2018-01-23T08:45:04.568Z,74.22
2018-01-23T08:47:35.030Z,74.36
2018-01-23T08:50:06.172Z,75.11
2018-01-23T08:52:35.327Z,75.10
2018-01-23T08:55:05.205Z,75.47
2018-01-23T08:57:35.448Z,75.44
2018-01-23T09:00:06.390Z,76.00
2018-01-23T09:02:36.200Z,75.51
2018-01-23T09:05:06.394Z,75.41
2018-01-23T09:07:37.275Z,75.05
2018-01-23T09:10:08.062Z,74.80
2018-01-23T09:12:39.573Z,74.66
2018-01-23T09:15:08.790Z,74.76
2018-01-23T09:17:38.870Z,75.16
2018-01-23T09:20:08.394Z,75.76
2018-01-23T09:22:37.584Z,75.64
2018-01-23T09:25:06.738Z,75.46
2018-01-23T09:27:35.875Z,75.36
2018-01-23T09:30:05.900Z,75.11
2018-01-23T09:32:36.882Z,75.02
2018-01-23T09:35:06.676Z,75.54
2018-01-23T09:37:37.490Z,75.40
2018-01-23T09:40:07.022Z,75.31
2018-01-23T09:42:36.837Z,75.06
2018-01-23T09:45:06.405Z,74.88
2018-01-23T09:47:35.826Z,74.95
2018-01-23T09:50:06.701Z,74.84
2018-01-23T09:52:35.894Z,74.76
2018-01-23T09:55:04.948Z,74.38
2018-01-23T09:57:35.856Z,74.12
2018-01-23T10:00:06.253Z,73.42
2018-01-23T10:02:35.775Z,73.32
2018-01-23T10:05:05.447Z,72.95
2018-01-23T10:07:34.647Z,72.77
2018-01-23T10:10:05.163Z,72.64
2018-01-23T10:12:34.278Z,72.65
2018-01-23T10:15:03.879Z,73.02
2018-01-23T10:17:33.346Z,73.05
2018-01-23T10:20:03.504Z,73.22
2018-01-23T10:22:32.933Z,73.58
2018-01-23T10:25:02.548Z,73.68
2018-01-23T10:27:31.989Z,74.06
2018-01-23T10:30:02.349Z,74.39
2018-01-23T10:32:31.937Z,74.61
2018-01-23T10:35:01.308Z,74.54
2018-01-23T10:37:30.732Z,74.82
2018-01-23T10:40:00.039Z,74.96
2018-01-23T10:42:30.561Z,74.89
2018-01-23T10:45:01.315Z,74.66
2018-01-23T10:47:30.627Z,74.64
2018-01-23T10:49:59.849Z,74.59
2018-01-23T10:52:29.324Z,74.49
2018-01-23T10:54:58.514Z,74.75
2018-01-23T10:57:27.764Z,75.11
2018-01-23T10:59:57.256Z,75.25
2018-01-23T11:02:26.631Z,75.34
2018-01-23T11:04:55.802Z,75.63
2018-01-23T11:07:25.395Z,75.66
2018-01-23T11:09:54.526Z,76.17
2018-01-23T11:12:23.674Z,76.10
2018-01-23T11:14:53.781Z,75.86
2018-01-23T11:17:22.908Z,75.59
2018-01-23T11:19:52.104Z,75.35
2018-01-23T11:22:21.583Z,75.07
2018-01-23T11:24:50.870Z,75.83
2018-01-23T11:27:19.982Z,75.43
2018-01-23T11:29:51.146Z,75.16
2018-01-23T11:32:20.649Z,74.76
2018-01-23T11:34:51.239Z,75.17
2018-01-23T11:37:20.996Z,74.94
2018-01-23T11:39:50.200Z,74.83
2018-01-23T11:42:19.423Z,74.07
2018-01-23T11:44:49.000Z,73.47
2018-01-23T11:47:18.304Z,74.01
2018-01-23T11:49:47.465Z,74.46
2018-01-23T11:52:16.825Z,74.60
2018-01-23T11:54:46.070Z,74.06
2018-01-23T11:57:15.551Z,73.10
2018-01-23T11:59:46.542Z,72.89
2018-01-23T12:02:15.864Z,73.10
2018-01-23T12:04:45.279Z,73.16
2018-01-23T12:07:14.497Z,72.72
2018-01-23T12:09:43.767Z,71.94
2018-01-23T12:12:13.521Z,72.18
2018-01-23T12:14:42.725Z,71.76
2018-01-23T12:17:11.932Z,70.64
2018-01-23T12:19:41.369Z,70.33
2018-01-23T12:22:10.604Z,69.98
2018-01-23T12:24:39.820Z,68.95
2018-01-23T12:27:09.264Z,68.32
2018-01-23T12:29:40.413Z,68.80
2018-01-23T12:32:09.763Z,68.30
2018-01-23T12:34:39.914Z,68.35
2018-01-23T12:37:09.233Z,68.19
2018-01-23T12:39:38.450Z,67.84
2018-01-23T12:42:07.966Z,68.47
2018-01-23T12:44:37.129Z,68.10
2018-01-23T12:47:06.437Z,68.19
2018-01-23T12:49:37.782Z,68.57
2018-01-23T12:52:07.413Z,68.63
2018-01-23T12:54:36.633Z,69.44
2018-01-23T12:57:06.178Z,69.58
2018-01-23T12:59:35.379Z,69.51
2018-01-23T13:02:05.399Z,69.82
2018-01-23T13:04:35.846Z,69.08
2018-01-23T13:07:05.122Z,69.64
2018-01-23T13:09:34.629Z,69.80
2018-01-23T13:12:04.808Z,70.20
2018-01-23T13:14:35.029Z,69.87
2018-01-23T13:17:05.915Z,69.42
2018-01-23T13:19:35.363Z,68.03
2018-01-23T13:22:06.867Z,68.51
2018-01-23T13:24:36.398Z,68.57
2018-01-23T13:27:05.569Z,68.97
2018-01-23T13:29:37.427Z,69.00
2018-01-23T13:32:06.778Z,69.58
2018-01-23T13:34:36.354Z,69.02
2018-01-23T13:37:07.611Z,68.66
2018-01-23T13:39:36.891Z,68.19
2018-01-23T13:42:06.221Z,68.50
2018-01-23T13:44:37.635Z,68.24
2018-01-23T13:47:06.855Z,68.19
2018-01-23T13:49:36.996Z,68.21
2018-01-23T13:52:06.304Z,67.92
2018-01-23T13:54:35.465Z,67.28
2018-01-23T13:57:05.010Z,67.10
2018-01-23T13:59:34.794Z,67.35
2018-01-23T14:02:04.949Z,67.54
2018-01-23T14:04:34.165Z,68.22
2018-01-23T14:07:04.436Z,68.10
2018-01-23T14:09:33.919Z,68.41
2018-01-23T14:12:04.910Z,67.96
2018-01-23T14:14:34.375Z,68.04
2018-01-23T14:17:03.884Z,68.15
2018-01-23T14:19:34.666Z,68.37
2018-01-23T14:22:04.938Z,68.25
2018-01-23T14:24:34.594Z,67.99
2018-01-23T14:27:04.073Z,68.51
2018-01-23T14:29:34.537Z,68.63
2018-01-23T14:32:04.446Z,69.32
2018-01-23T14:34:33.858Z,69.76
2018-01-23T14:37:03.290Z,70.09
2018-01-23T14:39:32.645Z,69.95
2018-01-23T14:42:04.236Z,70.20
2018-01-23T14:44:33.626Z,69.54
2018-01-23T14:47:03.558Z,69.66
2018-01-23T14:49:34.070Z,69.55
2018-01-23T14:52:04.134Z,69.35
2018-01-23T14:54:35.840Z,69.36
2018-01-23T14:57:05.184Z,69.80
2018-01-23T14:59:34.434Z,69.92
2018-01-23T15:02:04.796Z,69.80
2018-01-23T15:04:34.006Z,69.75
2018-01-23T15:07:03.616Z,69.84
2018-01-23T15:09:33.425Z,70.61
2018-01-23T15:12:33.067Z,70.57
2018-01-23T15:15:03.172Z,70.72
2018-01-23T15:17:32.426Z,70.69
2018-01-23T15:20:03.201Z,70.71
2018-01-23T15:22:33.774Z,71.04
2018-01-23T15:25:03.528Z,70.99
2018-01-23T15:27:33.656Z,70.85
2018-01-23T15:30:04.620Z,70.87
2018-01-23T15:32:33.975Z,71.35
2018-01-23T15:35:03.681Z,71.41
2018-01-23T15:37:33.290Z,71.51
2018-01-23T15:40:03.534Z,71.76
2018-01-23T15:42:32.848Z,72.06
2018-01-23T15:45:02.726Z,71.76
2018-01-23T15:47:32.113Z,71.61
2018-01-23T15:50:03.544Z,71.61
2018-01-23T15:52:32.718Z,71.56
2018-01-23T15:55:02.046Z,71.52
2018-01-23T15:57:32.444Z,71.85
2018-01-23T16:00:02.725Z,71.69
2018-01-23T16:02:32.355Z,71.45
2018-01-23T16:05:02.010Z,71.75
2018-01-23T16:07:31.811Z,71.78
2018-01-23T16:10:03.472Z,71.67
2018-01-23T16:12:33.370Z,72.12
2018-01-23T16:15:04.313Z,72.08
2018-01-23T16:17:34.025Z,71.83
2018-01-23T16:20:05.424Z,71.68
2018-01-23T16:26:09.383Z,71.65
2018-01-23T16:28:39.685Z,71.76
2018-01-23T16:31:10.829Z,71.79
2018-01-23T16:33:40.068Z,71.69
2018-01-23T16:36:09.808Z,71.85
2018-01-23T16:38:39.340Z,71.83
2018-01-23T16:41:09.285Z,71.77
2018-01-23T16:43:38.445Z,71.69
2018-01-23T16:46:07.890Z,71.76
2018-01-23T16:48:37.095Z,71.43
2018-01-23T16:51:06.332Z,71.49
2018-01-23T16:53:35.854Z,71.46
2018-01-23T16:56:05.774Z,71.38
2018-01-23T16:58:36.954Z,71.55
2018-01-23T17:01:06.291Z,71.42
2018-01-23T17:06:07.651Z,71.25
2018-01-23T17:08:38.020Z,71.25
2018-01-23T17:11:07.207Z,71.18
2018-01-23T17:13:36.852Z,70.78
2018-01-23T17:16:07.128Z,70.85
2018-01-23T17:18:36.327Z,70.92
2018-01-23T17:21:06.092Z,71.20
2018-01-23T17:23:35.314Z,70.90
2018-01-23T17:26:06.446Z,71.11
2018-01-23T17:28:36.487Z,71.31
2018-01-23T17:31:05.761Z,71.34
2018-01-23T17:33:35.609Z,71.36
2018-01-23T17:36:05.616Z,71.26
2018-01-23T17:38:34.793Z,71.40
2018-01-23T17:41:04.347Z,71.16
2018-01-23T17:43:33.893Z,71.14
2018-01-23T17:46:04.291Z,71.28
2018-01-23T17:48:33.726Z,71.43
2018-01-23T17:51:03.508Z,71.67
2018-01-23T17:53:32.700Z,71.54
2018-01-23T17:56:02.734Z,71.71
2018-01-23T17:58:34.824Z,71.31
2018-01-23T18:01:04.498Z,71.33
2018-01-23T18:03:34.834Z,71.18
2018-01-23T18:06:05.182Z,71.18
2018-01-23T18:08:34.336Z,71.14
2018-01-23T18:11:04.398Z,70.92
2018-01-23T18:13:34.661Z,70.99
2018-01-23T18:16:06.277Z,70.98
2018-01-23T18:18:35.539Z,70.89
2018-01-23T18:21:05.223Z,70.92
2018-01-23T18:23:34.418Z,70.88
2018-01-23T18:26:04.950Z,70.91
2018-01-23T18:28:34.562Z,71.05
2018-01-23T18:31:04.364Z,71.01
2018-01-23T18:33:35.886Z,70.62
2018-01-23T18:36:06.935Z,70.93
2018-01-23T18:38:36.123Z,70.91
2018-01-23T18:41:05.460Z,70.90
2018-01-23T18:43:35.974Z,71.00
2018-01-23T18:46:05.696Z,71.07
2018-01-23T18:48:35.001Z,71.06
2018-01-23T18:51:05.439Z,70.92
2018-01-23T18:53:35.176Z,70.73
2018-01-23T18:56:05.538Z,70.68
2018-01-23T18:58:36.973Z,70.98
2018-01-23T19:01:06.882Z,71.19
2018-01-23T19:03:36.171Z,70.65
2018-01-23T19:06:06.798Z,70.58
2018-01-23T19:08:35.932Z,70.75
2018-01-23T19:11:06.096Z,70.51
2018-01-23T19:13:35.688Z,70.59
2018-01-23T19:16:06.117Z,70.52
2018-01-23T19:18:36.848Z,70.25
2018-01-23T19:21:06.532Z,70.54
2018-01-23T19:23:35.692Z,70.39
2018-01-23T19:26:05.839Z,70.61
2018-01-23T19:28:36.668Z,70.55
2018-01-23T19:31:05.842Z,71.01
2018-01-23T19:33:36.018Z,71.03
2018-01-23T19:36:06.652Z,70.88
2018-01-23T19:38:35.809Z,71.06
2018-01-23T19:41:05.358Z,71.23
2018-01-23T19:43:34.910Z,70.93
2018-01-23T19:46:05.235Z,70.94
2018-01-23T19:48:34.375Z,71.33
2018-01-23T19:51:04.139Z,71.21
2018-01-23T19:53:33.334Z,71.38
2018-01-23T19:56:03.150Z,71.48
2018-01-23T19:58:34.611Z,71.07
2018-01-23T20:01:04.290Z,70.92
2018-01-23T20:03:35.455Z,70.78
2018-01-23T20:06:05.801Z,70.54
2018-01-23T20:08:34.976Z,70.32
2018-01-23T20:11:04.584Z,70.33
2018-01-23T20:13:35.025Z,70.62
2018-01-23T20:16:05.998Z,70.61
2018-01-23T20:18:35.245Z,70.14
2018-01-23T20:21:05.533Z,70.39
2018-01-23T20:23:34.725Z,70.19
2018-01-23T20:26:04.910Z,70.21
2018-01-23T20:28:35.887Z,70.18
2018-01-23T20:31:05.098Z,70.17
2018-01-23T20:33:37.667Z,70.07
2018-01-23T20:36:08.957Z,69.64
2018-01-23T20:38:39.653Z,69.71
2018-01-23T20:41:09.203Z,69.56
2018-01-23T20:43:38.393Z,69.36
2018-01-23T20:46:07.659Z,68.94
2018-01-23T20:48:37.246Z,68.83
2018-01-23T20:51:06.454Z,68.87
2018-01-23T20:53:37.100Z,68.94
2018-01-23T20:56:06.737Z,69.05
2018-01-23T20:58:36.670Z,69.23
2018-01-23T21:01:05.910Z,69.62
2018-01-23T21:03:35.517Z,69.47
2018-01-23T21:06:05.606Z,69.26
2018-01-23T21:08:34.907Z,69.15
2018-01-23T21:11:04.603Z,69.00
2018-01-23T21:13:34.816Z,68.67
2018-01-23T21:16:05.996Z,68.50
2018-01-23T21:18:35.497Z,68.38
2018-01-23T21:21:06.293Z,68.52
2018-01-23T21:23:35.452Z,68.35
2018-01-23T21:26:06.071Z,68.38
2018-01-23T21:28:35.661Z,68.40
2018-01-23T21:31:05.084Z,68.18
2018-01-23T21:33:34.830Z,68.21
2018-01-23T21:36:05.246Z,68.20
2018-01-23T21:38:34.480Z,68.58
2018-01-23T21:41:04.315Z,68.31
2018-01-23T21:43:34.823Z,68.33
2018-01-23T21:46:05.676Z,68.19
2018-01-23T21:48:37.478Z,67.99
2018-01-23T21:51:07.095Z,67.97
2018-01-23T21:55:58.597Z,68.17
2018-01-23T21:58:28.256Z,68.18
2018-01-23T22:00:57.416Z,67.96
2018-01-23T22:03:27.232Z,68.02
2018-01-23T22:05:57.438Z,67.78
2018-01-23T22:08:26.665Z,67.67
2018-01-23T22:10:56.463Z,67.61
2018-01-23T22:13:25.795Z,67.83
2018-01-23T22:15:55.084Z,67.85
2018-01-23T22:18:24.916Z,68.60
2018-01-23T22:20:54.270Z,68.24
2018-01-23T22:23:24.345Z,68.05
2018-01-23T22:25:55.117Z,68.34
2018-01-23T22:28:24.512Z,68.44
2018-01-23T22:30:55.127Z,68.74
2018-01-23T22:33:24.477Z,68.52
2018-01-23T22:35:53.799Z,68.52
2018-01-23T22:38:23.571Z,68.31
2018-01-23T22:40:52.936Z,68.52
2018-01-23T22:43:22.206Z,68.51
2018-01-23T22:45:51.640Z,68.38
2018-01-23T22:48:20.967Z,68.36
2018-01-23T22:50:50.555Z,68.42
2018-01-23T22:53:20.426Z,68.62
2018-01-23T22:55:49.592Z,68.39
2018-01-23T23:01:11.640Z,68.64
2018-01-23T23:03:41.109Z,68.62
2018-01-23T23:06:10.607Z,68.65
2018-01-23T23:08:39.843Z,68.63
2018-01-23T23:11:09.107Z,68.80
2018-01-23T23:13:40.092Z,69.02
2018-01-23T23:16:11.285Z,69.25
2018-01-23T23:18:41.974Z,69.27
2018-01-23T23:21:11.754Z,69.00
2018-01-23T23:23:40.994Z,69.06
2018-01-23T23:26:10.356Z,68.84
2018-01-23T23:28:39.822Z,68.94
2018-01-23T23:31:09.321Z,68.88
2018-01-23T23:33:38.598Z,68.95
2018-01-23T23:36:08.266Z,68.63
2018-01-23T23:38:38.306Z,68.86
2018-01-23T23:41:07.536Z,68.98
2018-01-23T23:43:37.183Z,69.14
2018-01-23T23:46:07.334Z,68.99
2018-01-23T23:48:36.489Z,69.15
2018-01-23T23:51:06.748Z,69.05
2018-01-23T23:53:36.064Z,69.06
2018-01-23T23:56:05.967Z,68.97
2018-01-23T23:58:36.616Z,69.00
